Time;durP1;ratioP1;P1;durP2;ratioP2;P2;SDS_P1;SDS_P2;PMS_P1;PMS_P2;Temp;Humidity;BMP_temperature;BMP_pressure;BME280_temperature;BME280_humidity;BME280_pressure;Samples;Min_cycle;Max_cycle;Signal;HPM_P1;HPM_P2
2023/04/24 00:02:25;;;;;;;0.73;0.50;;;13.90;99.90;;;;;;5035069;28;20228;-71
2023/04/24 00:04:51;;;;;;;0.90;0.60;;;13.90;99.90;;;;;;5035098;28;20451;-65
2023/04/24 00:07:20;;;;;;;1.00;0.60;;;13.80;99.90;;;;;;5032302;28;20170;-68
2023/04/24 00:09:47;;;;;;;0.45;0.40;;;13.90;99.90;;;;;;5025056;28;20190;-70
2023/04/24 00:12:16;;;;;;;0.50;0.45;;;13.90;99.90;;;;;;5027671;28;20182;-70
2023/04/24 00:14:42;;;;;;;0.50;0.43;;;13.90;99.90;;;;;;5017683;28;20175;-63
2023/04/24 00:17:09;;;;;;;0.68;0.50;;;13.90;99.90;;;;;;5037173;28;20278;-67
2023/04/24 00:19:35;;;;;;;0.63;0.50;;;13.90;99.90;;;;;;5045295;28;20198;-65
2023/04/24 00:22:04;;;;;;;0.50;0.50;;;13.90;99.90;;;;;;5056428;28;20225;-60
2023/04/24 00:24:32;;;;;;;0.40;0.40;;;13.90;99.90;;;;;;5043033;28;20205;-68
2023/04/24 00:26:57;;;;;;;0.50;0.50;;;13.80;99.90;;;;;;5035442;28;20213;-68
2023/04/24 00:29:25;;;;;;;0.80;0.60;;;13.90;99.90;;;;;;5029796;28;20201;-69
2023/04/24 00:31:51;;;;;;;0.70;0.60;;;13.90;99.90;;;;;;5034790;28;20181;-69
2023/04/24 00:34:16;;;;;;;0.50;0.50;;;13.80;99.90;;;;;;5026074;28;20289;-69
2023/04/24 00:36:45;;;;;;;0.98;0.60;;;13.80;99.90;;;;;;5017740;28;20189;-69
2023/04/24 00:39:10;;;;;;;1.50;0.60;;;13.80;99.90;;;;;;5034730;28;20198;-69
2023/04/24 00:41:38;;;;;;;0.70;0.60;;;13.90;99.90;;;;;;5035046;28;20236;-69
2023/04/24 00:44:06;;;;;;;0.60;0.60;;;13.90;99.90;;;;;;5034135;28;20197;-66
2023/04/24 00:46:33;;;;;;;0.60;0.50;;;13.90;99.90;;;;;;5029518;28;20178;-66
2023/04/24 00:49:02;;;;;;;0.70;0.60;;;13.90;99.90;;;;;;5027387;28;20385;-68
2023/04/24 00:51:30;;;;;;;0.43;0.30;;;13.90;99.90;;;;;;5027860;28;20282;-67
2023/04/24 00:53:58;;;;;;;0.57;0.50;;;13.90;99.90;;;;;;5031733;28;20876;-69
2023/04/24 00:56:24;;;;;;;0.98;0.77;;;13.90;99.90;;;;;;5031047;28;20198;-70
2023/04/24 00:58:50;;;;;;;1.00;0.73;;;13.90;99.90;;;;;;5032243;28;20392;-70
2023/04/24 01:01:20;;;;;;;1.10;0.90;;;13.90;99.90;;;;;;5023125;28;20193;-69
2023/04/24 01:03:46;;;;;;;0.85;0.70;;;13.90;99.90;;;;;;5026919;28;20251;-69
2023/04/24 01:06:12;;;;;;;0.75;0.73;;;13.80;99.90;;;;;;5024558;28;20178;-67
2023/04/24 01:08:39;;;;;;;0.70;0.65;;;13.90;99.90;;;;;;5030947;28;20202;-67
2023/04/24 01:11:12;;;;;;;0.93;0.70;;;13.90;99.90;;;;;;5034225;28;20208;-69
2023/04/24 01:13:38;;;;;;;0.60;0.60;;;13.90;99.90;;;;;;5032976;28;20178;-66
2023/04/24 01:16:03;;;;;;;0.85;0.50;;;13.80;99.90;;;;;;5030150;28;20189;-68
2023/04/24 01:18:29;;;;;;;0.90;0.57;;;13.90;99.90;;;;;;5031971;28;20265;-69
2023/04/24 01:20:58;;;;;;;0.80;0.60;;;13.80;99.90;;;;;;5034966;28;20428;-69
2023/04/24 01:23:24;;;;;;;0.50;0.50;;;13.90;99.90;;;;;;5034446;28;20198;-69
2023/04/24 01:25:52;;;;;;;0.65;0.60;;;13.80;99.90;;;;;;5032050;28;20189;-69
2023/04/24 01:28:19;;;;;;;0.80;0.70;;;13.80;99.90;;;;;;5033727;28;20181;-69
2023/04/24 01:30:45;;;;;;;0.98;0.70;;;13.80;99.90;;;;;;5032770;28;20244;-70
2023/04/24 01:33:12;;;;;;;0.70;0.68;;;13.80;99.90;;;;;;5040609;28;20201;-69
2023/04/24 01:35:41;;;;;;;2.92;0.98;;;13.70;99.90;;;;;;5035328;28;20186;-69
2023/04/24 01:38:09;;;;;;;1.20;0.90;;;13.70;99.90;;;;;;5033376;28;20213;-69
2023/04/24 01:40:35;;;;;;;1.70;0.90;;;13.60;99.90;;;;;;5038539;28;20220;-69
2023/04/24 01:43:02;;;;;;;1.20;1.10;;;13.60;99.90;;;;;;5030985;28;20183;-68
2023/04/24 01:45:30;;;;;;;1.33;1.10;;;13.50;99.90;;;;;;5037978;28;20180;-69
2023/04/24 01:47:56;;;;;;;1.10;1.00;;;13.40;99.90;;;;;;5038205;28;20184;-69
2023/04/24 01:50:22;;;;;;;1.27;1.02;;;13.50;99.90;;;;;;5039916;28;20204;-69
2023/04/24 01:52:48;;;;;;;1.50;1.20;;;13.40;99.90;;;;;;5044747;28;20167;-71
2023/04/24 01:55:13;;;;;;;1.30;1.20;;;13.30;99.90;;;;;;5044085;28;20173;-66
2023/04/24 01:57:44;;;;;;;2.30;1.38;;;13.30;99.90;;;;;;5037769;28;20208;-67
2023/04/24 02:00:12;;;;;;;1.45;0.98;;;13.20;99.90;;;;;;5046249;28;20201;-69
2023/04/24 02:02:42;;;;;;;1.40;1.10;;;13.20;99.90;;;;;;5037338;28;20178;-70
2023/04/24 02:05:08;;;;;;;1.58;1.15;;;13.20;99.90;;;;;;5038198;28;20182;-69
2023/04/24 02:07:34;;;;;;;0.98;0.77;;;13.10;99.90;;;;;;5037906;28;20182;-70
2023/04/24 02:10:00;;;;;;;1.17;1.00;;;13.10;99.90;;;;;;5037329;28;20293;-69
2023/04/24 02:12:25;;;;;;;1.05;0.90;;;13.10;99.90;;;;;;5027097;28;20182;-68
2023/04/24 02:14:51;;;;;;;1.45;1.10;;;13.00;99.90;;;;;;5031329;28;20177;-68
2023/04/24 02:17:19;;;;;;;2.30;1.20;;;13.00;99.90;;;;;;5030705;28;20209;-68
2023/04/24 02:19:47;;;;;;;3.25;1.60;;;13.00;99.90;;;;;;5031882;28;20198;-66
2023/04/24 02:22:13;;;;;;;2.35;1.92;;;12.90;99.90;;;;;;5033627;28;20201;-68
2023/04/24 02:24:41;;;;;;;2.35;2.05;;;12.80;99.90;;;;;;5037556;28;20248;-69
2023/04/24 02:27:07;;;;;;;2.53;2.30;;;12.80;99.90;;;;;;5036880;28;20169;-69
2023/04/24 02:29:32;;;;;;;2.95;2.30;;;12.70;99.90;;;;;;5032748;28;20197;-69
2023/04/24 02:31:58;;;;;;;3.00;2.70;;;12.70;99.90;;;;;;5034348;28;20178;-68
2023/04/24 02:34:24;;;;;;;3.83;2.90;;;12.60;99.90;;;;;;5033015;28;20182;-69
2023/04/24 02:36:50;;;;;;;3.58;2.80;;;12.50;99.90;;;;;;5030496;28;20186;-69
2023/04/24 02:39:18;;;;;;;3.92;3.20;;;12.40;99.90;;;;;;5035346;28;20198;-68
2023/04/24 02:41:49;;;;;;;3.30;3.00;;;12.40;99.90;;;;;;5032587;28;20198;-66
2023/04/24 02:44:14;;;;;;;3.38;3.05;;;12.30;99.90;;;;;;5030495;28;20257;-69
2023/04/24 02:46:41;;;;;;;3.50;2.80;;;12.20;99.90;;;;;;5036580;28;20230;-71
2023/04/24 02:49:07;;;;;;;3.42;2.88;;;12.20;99.90;;;;;;5030158;28;20269;-69
2023/04/24 02:51:33;;;;;;;3.20;2.47;;;12.10;99.90;;;;;;5033086;28;20281;-71
2023/04/24 02:54:01;;;;;;;3.45;2.78;;;12.00;99.90;;;;;;5030801;28;20201;-66
2023/04/24 02:56:26;;;;;;;3.38;2.55;;;11.90;99.90;;;;;;5033654;28;20174;-68
2023/04/24 02:58:56;;;;;;;3.22;2.88;;;11.90;99.90;;;;;;5028822;28;20202;-68
2023/04/24 03:01:22;;;;;;;3.05;2.63;;;11.80;99.90;;;;;;5033458;28;20208;-68
2023/04/24 03:03:48;;;;;;;2.80;2.55;;;11.80;99.90;;;;;;5031870;28;20253;-68
2023/04/24 03:06:13;;;;;;;2.55;2.35;;;11.70;99.90;;;;;;5035027;28;20194;-65
2023/04/24 03:08:39;;;;;;;3.75;2.60;;;11.60;99.90;;;;;;5030489;28;20182;-69
2023/04/24 03:11:07;;;;;;;2.55;2.30;;;11.60;99.90;;;;;;5032657;28;20247;-68
2023/04/24 03:13:35;;;;;;;3.58;2.70;;;11.50;99.90;;;;;;5028526;28;20179;-69
2023/04/24 03:16:00;;;;;;;4.97;3.17;;;11.50;99.90;;;;;;5034467;28;20186;-69
2023/04/24 03:18:26;;;;;;;3.72;2.92;;;11.40;99.90;;;;;;5034446;28;20184;-67
2023/04/24 03:20:52;;;;;;;3.15;2.85;;;11.40;99.90;;;;;;5031245;28;20205;-69
2023/04/24 03:23:19;;;;;;;3.53;3.05;;;11.40;99.90;;;;;;5035252;28;20201;-69
2023/04/24 03:25:48;;;;;;;3.20;2.80;;;11.40;99.90;;;;;;5034302;28;20182;-66
2023/04/24 03:28:14;;;;;;;3.20;2.80;;;11.30;99.90;;;;;;5022988;28;20179;-68
2023/04/24 03:30:39;;;;;;;3.75;2.90;;;11.20;99.90;;;;;;5041055;28;20287;-68
2023/04/24 03:33:07;;;;;;;4.32;3.47;;;11.30;99.90;;;;;;5036881;28;20177;-67
2023/04/24 03:35:36;;;;;;;3.72;3.20;;;11.20;99.90;;;;;;5035859;28;20185;-68
2023/04/24 03:38:06;;;;;;;5.50;3.63;;;11.20;99.90;;;;;;5028985;28;20189;-69
2023/04/24 03:40:35;;;;;;;3.60;2.90;;;11.10;99.90;;;;;;5028877;28;20244;-69
2023/04/24 03:43:03;;;;;;;4.63;3.25;;;11.10;99.90;;;;;;5035395;28;20190;-68
2023/04/24 03:45:29;;;;;;;3.78;3.17;;;11.10;99.90;;;;;;5036154;28;20170;-70
2023/04/24 03:47:56;;;;;;;3.80;3.40;;;11.10;99.90;;;;;;5035940;28;20188;-69
2023/04/24 03:50:22;;;;;;;4.00;3.33;;;11.10;99.90;;;;;;5035665;28;20194;-70
2023/04/24 03:52:50;;;;;;;4.00;3.60;;;11.00;99.90;;;;;;5036325;28;20208;-69
2023/04/24 03:55:16;;;;;;;4.43;3.70;;;11.00;99.90;;;;;;5035988;28;20212;-69
2023/04/24 03:57:44;;;;;;;6.18;4.30;;;11.00;99.90;;;;;;5035705;28;20178;-67
2023/04/24 04:00:18;;;;;;;5.28;3.60;;;11.00;99.90;;;;;;5034302;28;20198;-67
2023/04/24 04:02:44;;;;;;;4.95;3.58;;;10.90;99.90;;;;;;5035877;28;20197;-68
2023/04/24 04:05:11;;;;;;;4.90;3.17;;;10.90;99.90;;;;;;5035876;28;20181;-68
2023/04/24 04:07:39;;;;;;;4.60;4.07;;;10.90;99.90;;;;;;5036121;28;20204;-68
2023/04/24 04:10:08;;;;;;;4.90;4.10;;;10.90;99.90;;;;;;5035688;28;20186;-67
2023/04/24 04:12:34;;;;;;;3.60;3.20;;;10.90;99.90;;;;;;5035569;28;20178;-63
2023/04/24 04:14:59;;;;;;;3.67;3.38;;;10.90;99.90;;;;;;5069179;28;20192;-69
2023/04/24 04:17:27;;;;;;;3.80;3.28;;;10.90;99.90;;;;;;5049905;28;20186;-68
2023/04/24 04:19:56;;;;;;;3.65;3.25;;;10.90;99.90;;;;;;5032474;28;20241;-68
2023/04/24 04:22:21;;;;;;;4.10;3.33;;;10.90;99.90;;;;;;5035749;28;20264;-69
2023/04/24 04:24:47;;;;;;;4.03;3.28;;;10.90;99.90;;;;;;5032284;28;20276;-68
2023/04/24 04:27:13;;;;;;;3.90;3.30;;;10.90;99.90;;;;;;5033293;28;20178;-66
2023/04/24 04:29:41;;;;;;;3.75;3.35;;;10.80;99.90;;;;;;5041487;28;20223;-68
2023/04/24 04:32:07;;;;;;;4.13;2.90;;;10.80;99.90;;;;;;5032393;28;20228;-68
2023/04/24 04:34:33;;;;;;;3.67;3.05;;;10.80;99.90;;;;;;5033729;28;20193;-66
2023/04/24 04:37:02;;;;;;;4.05;2.95;;;10.80;99.90;;;;;;5025273;28;20230;-68
2023/04/24 04:39:28;;;;;;;3.65;3.20;;;10.80;99.90;;;;;;5031540;28;20210;-68
2023/04/24 04:41:56;;;;;;;4.97;3.60;;;10.80;99.90;;;;;;5028906;28;20174;-68
2023/04/24 04:44:21;;;;;;;3.95;3.50;;;10.80;99.90;;;;;;5032750;28;20349;-68
2023/04/24 04:46:47;;;;;;;4.38;3.20;;;10.80;99.90;;;;;;5032333;28;20215;-68
2023/04/24 04:49:16;;;;;;;4.05;3.42;;;10.80;99.90;;;;;;5031512;28;20185;-63
2023/04/24 04:51:42;;;;;;;3.72;3.10;;;10.80;99.90;;;;;;5031031;28;20202;-67
2023/04/24 04:54:07;;;;;;;5.93;2.92;;;10.90;99.90;;;;;;5031533;28;20192;-66
2023/04/24 04:56:33;;;;;;;3.95;3.17;;;10.90;99.90;;;;;;5030776;28;20240;-67
2023/04/24 04:58:59;;;;;;;3.67;3.03;;;11.00;99.90;;;;;;5024638;28;20192;-65
2023/04/24 05:01:30;;;;;;;4.22;3.13;;;11.00;99.90;;;;;;5027701;28;20175;-67
2023/04/24 05:03:55;;;;;;;4.00;2.95;;;11.10;99.90;;;;;;5033936;28;20194;-64
2023/04/24 05:06:24;;;;;;;3.00;2.70;;;11.10;99.90;;;;;;5030986;28;20272;-67
2023/04/24 05:08:55;;;;;;;3.03;2.63;;;11.10;99.90;;;;;;5031888;28;20235;-68
2023/04/24 05:11:23;;;;;;;3.63;3.00;;;11.10;99.90;;;;;;5032173;28;20413;-67
2023/04/24 05:13:49;;;;;;;3.60;2.88;;;11.20;99.90;;;;;;5034035;28;20194;-67
2023/04/24 05:16:14;;;;;;;2.95;2.60;;;11.10;99.90;;;;;;5029401;28;20251;-68
2023/04/24 05:18:40;;;;;;;3.10;2.60;;;11.20;99.90;;;;;;5032311;28;20183;-67
2023/04/24 05:21:09;;;;;;;2.83;2.50;;;11.20;99.90;;;;;;5029643;28;20218;-67
2023/04/24 05:23:37;;;;;;;3.00;2.65;;;11.20;99.90;;;;;;5031758;28;20179;-67
2023/04/24 05:26:07;;;;;;;2.95;2.42;;;11.20;99.90;;;;;;5023059;28;20228;-67
2023/04/24 05:28:37;;;;;;;3.42;2.88;;;11.20;99.90;;;;;;5034630;28;20209;-67
2023/04/24 05:31:03;;;;;;;3.35;2.72;;;11.20;99.90;;;;;;5034579;28;20173;-67
2023/04/24 05:33:29;;;;;;;3.13;2.50;;;11.20;99.90;;;;;;5034017;28;20212;-66
2023/04/24 05:35:55;;;;;;;3.13;2.58;;;11.20;99.90;;;;;;5032642;28;20173;-68
2023/04/24 05:38:21;;;;;;;4.15;2.67;;;11.30;99.90;;;;;;5014917;28;20175;-69
2023/04/24 05:40:46;;;;;;;5.05;3.00;;;11.30;99.90;;;;;;5033141;28;20209;-68
2023/04/24 05:43:13;;;;;;;3.50;2.85;;;11.30;99.90;;;;;;5033966;28;20170;-67
2023/04/24 05:45:41;;;;;;;3.05;2.72;;;11.30;99.90;;;;;;5034414;28;20246;-67
2023/04/24 05:48:09;;;;;;;3.33;2.70;;;11.30;99.90;;;;;;5033710;28;20198;-67
2023/04/24 05:50:37;;;;;;;3.40;3.10;;;11.40;99.90;;;;;;5033547;28;20200;-66
2023/04/24 05:53:03;;;;;;;4.47;3.40;;;11.30;99.90;;;;;;5037629;28;20184;-67
2023/04/24 05:55:30;;;;;;;4.65;3.28;;;11.40;99.90;;;;;;5053704;28;20173;-67
2023/04/24 05:57:55;;;;;;;3.70;3.20;;;11.40;99.90;;;;;;5053760;28;20268;-64
2023/04/24 06:00:24;;;;;;;3.80;3.40;;;11.40;99.90;;;;;;5053523;28;20303;-67
2023/04/24 06:02:49;;;;;;;4.28;3.17;;;11.40;99.90;;;;;;5053593;28;20165;-65
2023/04/24 06:05:20;;;;;;;4.32;3.60;;;11.40;99.90;;;;;;5053654;28;20181;-67
2023/04/24 06:07:46;;;;;;;3.42;2.90;;;11.40;99.90;;;;;;5040119;28;20177;-67
2023/04/24 06:10:11;;;;;;;4.53;3.28;;;11.40;99.90;;;;;;5033751;28;20178;-64
2023/04/24 06:12:37;;;;;;;4.70;3.35;;;11.40;99.90;;;;;;5033617;28;20202;-67
2023/04/24 06:15:04;;;;;;;3.65;3.00;;;11.40;99.90;;;;;;5019108;28;20197;-67
2023/04/24 06:17:32;;;;;;;4.32;3.25;;;11.50;99.90;;;;;;5027028;28;20178;-65
2023/04/24 06:20:01;;;;;;;3.30;2.92;;;11.50;99.90;;;;;;5025808;28;20212;-68
2023/04/24 06:22:26;;;;;;;4.43;3.03;;;11.50;99.90;;;;;;5033761;28;20174;-66
2023/04/24 06:24:54;;;;;;;4.07;3.25;;;11.50;99.90;;;;;;5037268;28;20205;-67
2023/04/24 06:27:20;;;;;;;3.05;2.55;;;11.50;99.90;;;;;;5028382;28;20170;-68
2023/04/24 06:29:46;;;;;;;4.32;3.28;;;11.50;99.90;;;;;;5030022;28;20227;-66
2023/04/24 06:32:11;;;;;;;5.45;3.83;;;11.50;99.90;;;;;;5037261;28;20289;-67
2023/04/24 06:34:39;;;;;;;5.00;3.35;;;11.50;99.90;;;;;;5036466;28;20182;-67
2023/04/24 06:37:05;;;;;;;3.33;3.03;;;11.60;99.90;;;;;;5033681;28;20174;-66
2023/04/24 06:39:33;;;;;;;4.55;3.42;;;11.50;99.90;;;;;;5036304;28;20196;-67
2023/04/24 06:41:58;;;;;;;4.10;3.50;;;11.60;99.90;;;;;;5036758;28;20170;-67
2023/04/24 06:44:24;;;;;;;4.20;3.05;;;11.60;99.90;;;;;;5036184;28;20193;-67
2023/04/24 06:46:52;;;;;;;5.07;3.45;;;11.70;99.90;;;;;;5036823;28;20174;-67
2023/04/24 06:49:18;;;;;;;3.85;3.10;;;11.60;99.90;;;;;;5036607;28;20206;-66
2023/04/24 06:51:44;;;;;;;3.45;3.03;;;11.60;99.90;;;;;;5037098;28;20217;-67
2023/04/24 06:54:12;;;;;;;2.90;2.67;;;11.60;99.90;;;;;;5029784;28;20237;-68
2023/04/24 06:56:38;;;;;;;3.10;2.70;;;11.60;99.90;;;;;;5037548;28;20174;-67
2023/04/24 06:59:06;;;;;;;2.75;2.42;;;11.70;99.90;;;;;;5036759;28;20193;-67
2023/04/24 07:01:31;;;;;;;2.85;2.63;;;11.60;99.90;;;;;;5036125;28;20166;-67
2023/04/24 07:03:57;;;;;;;3.03;2.30;;;11.50;99.90;;;;;;5034554;28;20216;-67
2023/04/24 07:06:23;;;;;;;2.40;2.20;;;11.40;99.90;;;;;;5036960;28;20211;-67
2023/04/24 07:08:51;;;;;;;2.50;2.10;;;11.40;99.90;;;;;;5035431;28;20242;-67
2023/04/24 07:11:16;;;;;;;2.40;2.20;;;11.30;99.90;;;;;;5036975;28;20248;-67
2023/04/24 07:13:47;;;;;;;2.13;1.90;;;11.20;99.90;;;;;;5026665;28;20174;-67
2023/04/24 07:16:12;;;;;;;2.05;1.85;;;11.20;99.90;;;;;;5032300;28;20443;-67
2023/04/24 07:18:39;;;;;;;2.22;2.03;;;11.10;99.90;;;;;;5036369;28;20339;-67
2023/04/24 07:21:05;;;;;;;2.15;1.90;;;11.20;99.90;;;;;;5032864;28;20206;-68
2023/04/24 07:23:31;;;;;;;2.53;2.33;;;11.10;99.90;;;;;;5036177;28;20303;-67
2023/04/24 07:25:56;;;;;;;2.72;2.20;;;11.10;99.90;;;;;;5036511;28;20257;-68
2023/04/24 07:28:25;;;;;;;2.30;1.92;;;11.00;99.90;;;;;;5035841;28;20184;-67
2023/04/24 07:30:53;;;;;;;1.90;1.55;;;11.00;99.90;;;;;;5031012;28;20505;-62
2023/04/24 07:33:19;;;;;;;2.08;1.88;;;11.00;99.90;;;;;;5025736;28;20209;-68
2023/04/24 07:35:47;;;;;;;2.63;1.77;;;11.00;99.90;;;;;;5036349;28;20170;-67
2023/04/24 07:38:14;;;;;;;1.85;1.65;;;11.00;99.90;;;;;;5035754;28;20178;-68
2023/04/24 07:40:42;;;;;;;1.70;1.50;;;10.90;99.90;;;;;;5035800;28;20208;-68
2023/04/24 07:43:08;;;;;;;1.67;1.35;;;10.90;99.90;;;;;;5036272;28;20208;-67
2023/04/24 07:45:37;;;;;;;1.67;1.30;;;10.90;99.90;;;;;;5036468;28;20264;-68
2023/04/24 07:48:03;;;;;;;2.47;1.38;;;10.90;99.90;;;;;;5035107;28;20187;-67
2023/04/24 07:50:29;;;;;;;1.98;1.50;;;10.80;99.90;;;;;;5036225;28;20201;-67
2023/04/24 07:52:54;;;;;;;1.40;1.30;;;10.90;99.90;;;;;;5036241;28;20250;-67
2023/04/24 07:55:20;;;;;;;1.40;1.25;;;10.80;99.90;;;;;;5035869;28;20238;-67
2023/04/24 07:57:48;;;;;;;1.33;1.15;;;10.80;99.90;;;;;;5036187;28;20174;-67
2023/04/24 08:00:16;;;;;;;1.42;1.23;;;10.70;99.90;;;;;;5035987;28;20194;-68
2023/04/24 08:02:46;;;;;;;1.20;1.10;;;10.70;99.90;;;;;;5036234;28;20190;-67
2023/04/24 08:05:12;;;;;;;1.42;1.10;;;10.60;99.90;;;;;;5036243;28;20174;-67
2023/04/24 08:07:42;;;;;;;1.25;0.95;;;10.60;99.90;;;;;;5035858;28;20177;-67
2023/04/24 08:10:10;;;;;;;1.08;0.90;;;10.50;99.90;;;;;;5035600;28;20277;-68
2023/04/24 08:12:35;;;;;;;1.63;0.90;;;10.40;99.90;;;;;;5036068;28;20232;-68
2023/04/24 08:15:01;;;;;;;1.35;0.90;;;10.40;99.90;;;;;;5035258;28;20202;-67
2023/04/24 08:17:27;;;;;;;1.88;0.90;;;10.30;99.90;;;;;;5035613;28;20268;-67
2023/04/24 08:19:58;;;;;;;1.08;0.90;;;10.30;99.90;;;;;;5034833;28;20202;-67
2023/04/24 08:22:24;;;;;;;1.42;0.95;;;10.30;99.90;;;;;;5035681;28;20192;-67
2023/04/24 08:24:53;;;;;;;1.27;0.70;;;10.20;99.90;;;;;;5035474;28;20166;-67
2023/04/24 08:27:18;;;;;;;0.70;0.70;;;10.10;99.90;;;;;;5034858;28;20240;-67
2023/04/24 08:29:44;;;;;;;1.02;0.70;;;10.10;99.90;;;;;;5035103;28;20197;-67
2023/04/24 08:32:10;;;;;;;1.75;0.70;;;10.10;99.90;;;;;;5035657;28;20242;-66
2023/04/24 08:34:35;;;;;;;1.03;0.80;;;10.00;99.90;;;;;;5034293;28;20202;-66
2023/04/24 08:37:03;;;;;;;1.27;1.10;;;9.90;99.90;;;;;;5035036;28;20178;-67
2023/04/24 08:39:29;;;;;;;1.90;1.20;;;9.90;99.90;;;;;;5031459;28;20256;-66
2023/04/24 08:41:55;;;;;;;1.20;1.10;;;9.90;99.90;;;;;;5030703;28;20175;-68
2023/04/24 08:44:21;;;;;;;2.53;1.50;;;9.80;99.90;;;;;;5037161;28;20175;-69
2023/04/24 08:46:51;;;;;;;1.42;1.23;;;9.80;99.90;;;;;;5031403;28;20353;-71
2023/04/24 08:49:18;;;;;;;2.10;1.23;;;9.70;99.90;;;;;;5033866;28;20194;-74
2023/04/24 08:51:45;;;;;;;1.23;1.00;;;9.60;99.90;;;;;;5026838;28;20170;-73
2023/04/24 08:54:15;;;;;;;1.40;1.20;;;9.50;99.90;;;;;;5026633;28;20221;-71
2023/04/24 08:56:44;;;;;;;1.90;1.50;;;9.40;99.90;;;;;;5034396;28;20178;-77
2023/04/24 08:59:10;;;;;;;1.87;1.30;;;9.30;99.90;;;;;;5033674;28;20200;-74
2023/04/24 09:01:40;;;;;;;1.93;1.23;;;9.10;99.90;;;;;;5034907;28;20192;-75
2023/04/24 09:04:10;;;;;;;1.70;1.60;;;9.00;99.90;;;;;;5034034;28;20246;-74
2023/04/24 09:06:38;;;;;;;1.93;1.60;;;9.00;99.90;;;;;;5027926;28;20249;-73
2023/04/24 09:09:05;;;;;;;2.93;2.00;;;8.90;99.90;;;;;;5020734;28;20178;-74
2023/04/24 09:11:32;;;;;;;1.97;1.77;;;8.90;99.90;;;;;;5034565;28;20208;-73
2023/04/24 09:13:58;;;;;;;2.00;1.80;;;8.90;99.90;;;;;;5034672;28;20169;-74
2023/04/24 09:16:25;;;;;;;2.37;1.90;;;8.80;99.90;;;;;;5031150;28;20181;-72
2023/04/24 09:18:55;;;;;;;3.90;2.07;;;8.90;99.90;;;;;;5030156;28;20189;-75
2023/04/24 09:21:22;;;;;;;3.30;2.17;;;8.80;99.90;;;;;;5025847;28;20240;-75
2023/04/24 09:24:00;;;;;;;2.53;2.00;;;8.80;99.90;;;;;;5033612;28;20177;-75
2023/04/24 09:26:32;;;;;;;2.93;2.10;;;8.90;99.90;;;;;;5034443;28;20194;-70
2023/04/24 09:29:02;;;;;;;2.93;2.20;;;8.90;99.90;;;;;;5034256;28;20186;-75
2023/04/24 09:31:31;;;;;;;4.97;2.93;;;8.90;99.90;;;;;;5033932;28;20198;-75
2023/04/24 09:34:00;;;;;;;3.27;2.63;;;8.90;99.90;;;;;;5034246;28;20173;-74
2023/04/24 09:36:41;;;;;;;3.97;2.60;;;8.90;99.90;;;;;;5034577;28;20253;-74
2023/04/24 09:39:15;;;;;;;3.03;2.50;;;8.90;99.90;;;;;;5034164;28;20194;-76
2023/04/24 09:41:51;;;;;;;3.63;2.60;;;8.90;99.90;;;;;;5034268;28;20182;-74
2023/04/24 09:44:24;;;;;;;3.10;2.60;;;8.90;99.90;;;;;;5034255;28;20196;-74
2023/04/24 09:46:59;;;;;;;4.17;3.13;;;8.90;99.90;;;;;;5034543;28;20170;-74
2023/04/24 09:49:33;;;;;;;4.97;3.10;;;8.90;99.90;;;;;;5034382;28;20401;-74
2023/04/24 09:52:13;;;;;;;2.87;2.17;;;9.00;99.90;;;;;;5034253;28;20266;-72
2023/04/24 09:54:40;;;;;;;4.20;2.53;;;9.00;99.90;;;;;;5034636;28;20173;-73
2023/04/24 09:57:09;;;;;;;3.37;2.53;;;9.00;99.90;;;;;;5036020;28;20205;-73
2023/04/24 09:59:34;;;;;;;3.13;2.53;;;9.00;99.90;;;;;;5038403;28;20198;-71
2023/04/24 10:02:01;;;;;;;3.83;2.60;;;9.10;99.90;;;;;;5037869;28;20200;-73
2023/04/24 10:04:30;;;;;;;2.50;2.20;;;9.10;99.90;;;;;;5038300;28;20208;-71
2023/04/24 10:06:57;;;;;;;3.63;2.67;;;9.20;99.90;;;;;;5038358;28;20166;-72
2023/04/24 10:09:25;;;;;;;5.47;3.40;;;9.20;99.90;;;;;;5034208;28;20186;-73
2023/04/24 10:11:53;;;;;;;3.87;2.90;;;9.30;99.90;;;;;;5035142;28;20224;-73
2023/04/24 10:14:23;;;;;;;2.80;2.37;;;9.30;99.90;;;;;;5035364;28;20175;-73
2023/04/24 10:16:50;;;;;;;3.83;2.88;;;9.40;99.90;;;;;;5035059;28;20289;-73
2023/04/24 10:19:19;;;;;;;4.83;3.17;;;9.40;99.90;;;;;;5038547;28;20170;-72
2023/04/24 10:21:50;;;;;;;3.73;2.80;;;9.40;99.90;;;;;;5034588;28;20198;-72
2023/04/24 10:24:18;;;;;;;3.60;2.90;;;9.50;99.90;;;;;;5025409;28;20186;-71
2023/04/24 10:26:48;;;;;;;4.00;2.83;;;9.50;99.90;;;;;;5045602;28;20250;-68
2023/04/24 10:29:18;;;;;;;3.60;3.30;;;9.50;99.90;;;;;;5044310;28;20217;-68
2023/04/24 10:31:47;;;;;;;3.00;2.57;;;9.60;99.90;;;;;;5051811;28;20193;-69
2023/04/24 10:34:16;;;;;;;4.40;2.80;;;9.60;99.90;;;;;;5052268;28;20178;-67
2023/04/24 10:37:04;;;;;;;3.87;2.90;;;9.70;99.90;;;;;;5050871;28;20242;-70
2023/04/24 10:39:33;;;;;;;4.30;3.03;;;9.80;99.90;;;;;;5049619;28;20225;-68
2023/04/24 10:41:58;;;;;;;4.77;2.90;;;9.80;99.90;;;;;;5040439;28;20249;-69
2023/04/24 10:44:24;;;;;;;5.13;3.35;;;9.90;99.90;;;;;;5020390;28;20170;-70
2023/04/24 10:46:57;;;;;;;3.35;2.90;;;10.00;99.90;;;;;;5033883;28;20171;-69
2023/04/24 10:49:31;;;;;;;4.25;3.00;;;10.10;99.90;;;;;;5035119;28;20209;-70
2023/04/24 10:52:03;;;;;;;4.07;3.00;;;10.20;99.90;;;;;;5036598;28;20169;-69
2023/04/24 10:54:28;;;;;;;4.75;3.08;;;10.20;99.90;;;;;;5036258;28;20201;-66
2023/04/24 10:57:23;;;;;;;4.50;2.92;;;10.20;99.90;;;;;;5036870;28;20277;-69
2023/04/24 10:59:50;;;;;;;4.75;3.00;;;10.30;99.90;;;;;;5035748;28;20293;-68
2023/04/24 11:02:19;;;;;;;5.70;3.75;;;10.40;99.90;;;;;;5036339;28;20233;-69
2023/04/24 11:04:46;;;;;;;6.53;3.85;;;10.40;99.90;;;;;;5044495;28;20174;-70
2023/04/24 11:07:12;;;;;;;5.15;3.67;;;10.40;99.90;;;;;;5036384;28;20190;-69
2023/04/24 11:09:40;;;;;;;6.30;3.80;;;10.40;99.90;;;;;;5035180;28;20201;-69
2023/04/24 11:12:16;;;;;;;4.38;3.30;;;10.40;99.90;;;;;;5020998;28;20178;-68
2023/04/24 11:14:57;;;;;;;5.45;3.45;;;10.50;99.90;;;;;;5021804;28;20237;-69
2023/04/24 11:17:31;;;;;;;7.10;3.58;;;10.50;99.90;;;;;;5031578;28;20231;-67
2023/04/24 11:20:10;;;;;;;5.32;3.80;;;10.50;99.90;;;;;;5032874;28;20198;-67
2023/04/24 11:22:42;;;;;;;6.65;4.00;;;10.60;99.90;;;;;;5027531;28;20169;-67
2023/04/24 11:25:12;;;;;;;5.68;4.20;;;10.70;99.90;;;;;;5020534;28;20185;-67
2023/04/24 11:27:42;;;;;;;5.07;3.88;;;10.80;99.90;;;;;;5034035;28;20393;-68
2023/04/24 11:30:10;;;;;;;4.82;3.63;;;10.80;99.90;;;;;;5035109;28;20178;-68
2023/04/24 11:32:36;;;;;;;5.38;4.43;;;10.90;99.90;;;;;;5035805;28;20231;-68
2023/04/24 11:35:14;;;;;;;6.38;4.30;;;11.10;99.90;;;;;;5035489;28;20177;-68
2023/04/24 11:37:55;;;;;;;4.85;4.22;;;11.20;99.90;;;;;;5036211;28;20251;-67
2023/04/24 11:40:23;;;;;;;6.35;4.80;;;11.40;99.90;;;;;;5035712;28;20201;-68
2023/04/24 11:42:55;;;;;;;6.38;4.75;;;11.60;99.90;;;;;;5035928;28;20174;-68
2023/04/24 11:45:33;;;;;;;7.57;4.78;;;11.80;99.90;;;;;;5035718;28;20170;-67
2023/04/24 11:47:59;;;;;;;7.10;4.40;;;11.90;99.90;;;;;;5037263;28;20186;-68
2023/04/24 11:50:31;;;;;;;6.35;4.00;;;12.00;99.90;;;;;;5035428;28;20197;-67
2023/04/24 11:52:56;;;;;;;5.70;3.90;;;12.00;99.90;;;;;;5035731;28;20202;-68
2023/04/24 11:55:22;;;;;;;6.00;4.22;;;12.00;99.90;;;;;;5035365;28;20265;-67
2023/04/24 11:57:56;;;;;;;6.22;3.53;;;12.10;99.90;;;;;;5035518;28;20281;-67
2023/04/24 12:00:30;;;;;;;6.35;4.03;;;12.10;99.90;;;;;;5035546;28;20190;-68
2023/04/24 12:03:08;;;;;;;8.50;3.78;;;12.20;99.90;;;;;;5042488;28;20204;-66
2023/04/24 12:05:39;;;;;;;6.13;3.70;;;12.30;99.90;;;;;;5055314;28;20195;-67
2023/04/24 12:08:05;;;;;;;7.88;3.78;;;12.40;99.90;;;;;;5055286;28;20163;-67
2023/04/24 12:10:35;;;;;;;7.00;3.70;;;12.40;99.90;;;;;;5055319;28;20256;-68
2023/04/24 12:13:03;;;;;;;3.92;2.78;;;12.50;99.90;;;;;;5055071;28;20177;-68
2023/04/24 12:15:31;;;;;;;8.10;3.90;;;12.60;99.90;;;;;;5055356;28;20200;-68
2023/04/24 12:17:57;;;;;;;8.93;4.80;;;12.60;99.90;;;;;;5055178;28;20237;-66
2023/04/24 12:20:31;;;;;;;5.75;3.90;;;12.60;99.90;;;;;;5051897;28;20201;-68
2023/04/24 12:23:00;;;;;;;5.97;4.30;;;12.60;99.90;;;;;;5035098;28;20181;-68
2023/04/24 12:25:31;;;;;;;6.43;4.40;;;12.60;99.90;;;;;;5024456;28;20202;-66
2023/04/24 12:28:03;;;;;;;6.65;4.35;;;12.60;99.90;;;;;;5033175;28;20174;-67
2023/04/24 12:30:32;;;;;;;5.65;4.47;;;12.60;99.90;;;;;;5034719;28;20205;-68
2023/04/24 12:32:59;;;;;;;5.03;3.90;;;12.60;99.90;;;;;;5025571;28;20200;-68
2023/04/24 12:35:31;;;;;;;7.28;4.15;;;12.70;99.90;;;;;;5034595;28;20186;-65
2023/04/24 12:38:06;;;;;;;8.70;5.57;;;12.80;99.90;;;;;;5025912;28;20212;-66
2023/04/24 12:40:32;;;;;;;7.28;4.95;;;13.00;99.90;;;;;;5034499;28;20220;-66
2023/04/24 12:42:58;;;;;;;8.48;5.30;;;13.00;99.90;;;;;;5032832;28;20182;-67
2023/04/24 12:45:25;;;;;;;7.65;4.82;;;13.10;99.90;;;;;;5034567;28;20162;-67
2023/04/24 12:47:50;;;;;;;6.68;5.13;;;13.10;99.90;;;;;;5034113;28;20176;-67
2023/04/24 12:50:16;;;;;;;7.13;4.82;;;13.20;99.90;;;;;;5034609;28;20202;-67
2023/04/24 12:52:43;;;;;;;9.85;5.07;;;13.40;99.90;;;;;;5034773;28;20205;-68